sensor_id;sensor_type;location;lat;lon;timestamp;P1;durP1;ratioP1;P2;durP2;ratioP2
5465;SDS011;2755;50.728;7.108;2024-02-14T00:00:33;122.47;;;41.93;;
5465;SDS011;2755;50.728;7.108;2024-02-14T00:02:59;121.83;;;41.20;;
5465;SDS011;2755;50.728;7.108;2024-02-14T00:05:25;122.33;;;41.97;;
5465;SDS011;2755;50.728;7.108;2024-02-14T00:07:51;121.13;;;39.20;;
5465;SDS011;2755;50.728;7.108;2024-02-14T00:10:17;123.20;;;42.20;;
5465;SDS011;2755;50.728;7.108;2024-02-14T00:12:43;121.97;;;41.70;;
5465;SDS011;2755;50.728;7.108;2024-02-14T00:15:09;124.27;;;45.13;;
5465;SDS011;2755;50.728;7.108;2024-02-14T00:17:35;123.10;;;42.90;;
5465;SDS011;2755;50.728;7.108;2024-02-14T00:20:01;121.20;;;39.80;;
5465;SDS011;2755;50.728;7.108;2024-02-14T00:22:28;121.87;;;41.37;;
5465;SDS011;2755;50.728;7.108;2024-02-14T00:24:54;120.87;;;42.03;;
5465;SDS011;2755;50.728;7.108;2024-02-14T00:27:20;120.47;;;41.47;;
5465;SDS011;2755;50.728;7.108;2024-02-14T00:29:46;120.77;;;40.57;;
5465;SDS011;2755;50.728;7.108;2024-02-14T00:32:13;121.73;;;42.57;;
5465;SDS011;2755;50.728;7.108;2024-02-14T00:34:39;122.47;;;42.20;;
5465;SDS011;2755;50.728;7.108;2024-02-14T00:37:05;124.30;;;45.30;;
5465;SDS011;2755;50.728;7.108;2024-02-14T00:39:31;122.00;;;41.30;;
5465;SDS011;2755;50.728;7.108;2024-02-14T00:41:57;123.50;;;43.47;;
5465;SDS011;2755;50.728;7.108;2024-02-14T00:44:23;121.87;;;42.30;;
5465;SDS011;2755;50.728;7.108;2024-02-14T00:46:49;124.07;;;43.87;;
5465;SDS011;2755;50.728;7.108;2024-02-14T00:49:15;122.90;;;43.03;;
5465;SDS011;2755;50.728;7.108;2024-02-14T00:51:40;120.83;;;39.07;;
5465;SDS011;2755;50.728;7.108;2024-02-14T00:54:06;122.70;;;41.83;;
5465;SDS011;2755;50.728;7.108;2024-02-14T00:56:33;124.30;;;43.90;;
5465;SDS011;2755;50.728;7.108;2024-02-14T00:58:59;120.47;;;42.23;;
5465;SDS011;2755;50.728;7.108;2024-02-14T01:01:25;121.97;;;41.80;;
5465;SDS011;2755;50.728;7.108;2024-02-14T01:03:51;121.70;;;42.20;;
5465;SDS011;2755;50.728;7.108;2024-02-14T01:06:17;122.30;;;41.47;;
5465;SDS011;2755;50.728;7.108;2024-02-14T01:08:43;122.60;;;42.17;;
5465;SDS011;2755;50.728;7.108;2024-02-14T01:11:09;124.30;;;45.53;;
5465;SDS011;2755;50.728;7.108;2024-02-14T01:13:35;122.30;;;42.47;;
5465;SDS011;2755;50.728;7.108;2024-02-14T01:16:02;124.37;;;45.63;;
5465;SDS011;2755;50.728;7.108;2024-02-14T01:18:29;123.07;;;42.77;;
5465;SDS011;2755;50.728;7.108;2024-02-14T01:20:55;123.40;;;43.70;;
5465;SDS011;2755;50.728;7.108;2024-02-14T01:23:21;123.37;;;44.27;;
5465;SDS011;2755;50.728;7.108;2024-02-14T01:25:47;122.47;;;43.30;;
5465;SDS011;2755;50.728;7.108;2024-02-14T01:28:13;123.80;;;44.60;;
5465;SDS011;2755;50.728;7.108;2024-02-14T01:30:39;123.40;;;43.67;;
5465;SDS011;2755;50.728;7.108;2024-02-14T01:33:06;123.57;;;45.37;;
5465;SDS011;2755;50.728;7.108;2024-02-14T01:35:32;124.10;;;44.10;;
5465;SDS011;2755;50.728;7.108;2024-02-14T01:37:58;123.87;;;44.57;;
5465;SDS011;2755;50.728;7.108;2024-02-14T01:40:24;124.77;;;47.60;;
5465;SDS011;2755;50.728;7.108;2024-02-14T01:42:50;126.47;;;47.83;;
5465;SDS011;2755;50.728;7.108;2024-02-14T01:45:17;123.57;;;44.90;;
5465;SDS011;2755;50.728;7.108;2024-02-14T01:47:43;123.17;;;45.23;;
5465;SDS011;2755;50.728;7.108;2024-02-14T01:50:09;124.97;;;47.07;;
5465;SDS011;2755;50.728;7.108;2024-02-14T01:52:36;125.17;;;45.87;;
5465;SDS011;2755;50.728;7.108;2024-02-14T01:55:02;126.77;;;49.30;;
5465;SDS011;2755;50.728;7.108;2024-02-14T01:57:30;124.43;;;46.90;;
5465;SDS011;2755;50.728;7.108;2024-02-14T01:59:56;127.17;;;50.30;;
5465;SDS011;2755;50.728;7.108;2024-02-14T02:02:23;128.70;;;51.70;;
5465;SDS011;2755;50.728;7.108;2024-02-14T02:04:51;125.30;;;47.40;;
5465;SDS011;2755;50.728;7.108;2024-02-14T02:07:18;124.57;;;46.37;;
5465;SDS011;2755;50.728;7.108;2024-02-14T02:09:45;126.60;;;49.07;;
5465;SDS011;2755;50.728;7.108;2024-02-14T02:12:11;124.10;;;45.67;;
5465;SDS011;2755;50.728;7.108;2024-02-14T02:14:37;126.60;;;48.37;;
5465;SDS011;2755;50.728;7.108;2024-02-14T02:17:05;125.10;;;48.63;;
5465;SDS011;2755;50.728;7.108;2024-02-14T02:19:33;127.70;;;51.47;;
5465;SDS011;2755;50.728;7.108;2024-02-14T02:21:59;127.17;;;49.67;;
5465;SDS011;2755;50.728;7.108;2024-02-14T02:24:25;127.77;;;51.07;;
5465;SDS011;2755;50.728;7.108;2024-02-14T02:26:51;127.63;;;50.67;;
5465;SDS011;2755;50.728;7.108;2024-02-14T02:29:17;126.20;;;50.00;;
5465;SDS011;2755;50.728;7.108;2024-02-14T02:31:44;126.97;;;51.27;;
5465;SDS011;2755;50.728;7.108;2024-02-14T02:34:10;125.20;;;46.97;;
5465;SDS011;2755;50.728;7.108;2024-02-14T02:36:36;125.63;;;48.97;;
5465;SDS011;2755;50.728;7.108;2024-02-14T02:39:03;127.73;;;50.63;;
5465;SDS011;2755;50.728;7.108;2024-02-14T02:41:29;126.83;;;51.13;;
5465;SDS011;2755;50.728;7.108;2024-02-14T02:43:56;129.57;;;53.57;;
5465;SDS011;2755;50.728;7.108;2024-02-14T02:46:23;125.43;;;47.80;;
5465;SDS011;2755;50.728;7.108;2024-02-14T02:48:50;126.73;;;51.40;;
5465;SDS011;2755;50.728;7.108;2024-02-14T02:51:19;124.23;;;47.10;;
5465;SDS011;2755;50.728;7.108;2024-02-14T02:53:45;127.20;;;51.30;;
5465;SDS011;2755;50.728;7.108;2024-02-14T02:56:11;127.43;;;52.60;;
5465;SDS011;2755;50.728;7.108;2024-02-14T02:58:37;129.00;;;54.37;;
5465;SDS011;2755;50.728;7.108;2024-02-14T03:01:07;127.30;;;51.60;;
5465;SDS011;2755;50.728;7.108;2024-02-14T03:03:34;127.07;;;52.27;;
5465;SDS011;2755;50.728;7.108;2024-02-14T03:06:01;127.43;;;51.83;;
5465;SDS011;2755;50.728;7.108;2024-02-14T03:08:28;128.57;;;55.17;;
5465;SDS011;2755;50.728;7.108;2024-02-14T03:10:55;126.67;;;51.80;;
5465;SDS011;2755;50.728;7.108;2024-02-14T03:13:27;125.27;;;49.37;;
5465;SDS011;2755;50.728;7.108;2024-02-14T03:15:53;126.60;;;52.97;;
5465;SDS011;2755;50.728;7.108;2024-02-14T03:18:23;126.10;;;49.20;;
5465;SDS011;2755;50.728;7.108;2024-02-14T03:20:49;126.97;;;50.13;;
5465;SDS011;2755;50.728;7.108;2024-02-14T03:23:15;127.97;;;51.53;;
5465;SDS011;2755;50.728;7.108;2024-02-14T03:25:41;127.90;;;51.53;;
5465;SDS011;2755;50.728;7.108;2024-02-14T03:28:07;127.53;;;49.67;;
5465;SDS011;2755;50.728;7.108;2024-02-14T03:30:34;127.00;;;50.20;;
5465;SDS011;2755;50.728;7.108;2024-02-14T03:33:00;125.70;;;48.13;;
5465;SDS011;2755;50.728;7.108;2024-02-14T03:35:26;126.07;;;50.90;;
5465;SDS011;2755;50.728;7.108;2024-02-14T03:37:52;127.13;;;51.50;;
5465;SDS011;2755;50.728;7.108;2024-02-14T03:40:18;125.70;;;49.80;;
5465;SDS011;2755;50.728;7.108;2024-02-14T03:42:47;124.60;;;48.73;;
5465;SDS011;2755;50.728;7.108;2024-02-14T03:45:13;127.07;;;50.67;;
5465;SDS011;2755;50.728;7.108;2024-02-14T03:47:39;127.37;;;52.30;;
5465;SDS011;2755;50.728;7.108;2024-02-14T03:50:07;124.50;;;46.97;;
5465;SDS011;2755;50.728;7.108;2024-02-14T03:52:33;124.27;;;46.37;;
5465;SDS011;2755;50.728;7.108;2024-02-14T03:55:02;127.87;;;53.53;;
5465;SDS011;2755;50.728;7.108;2024-02-14T03:57:28;128.20;;;52.67;;
5465;SDS011;2755;50.728;7.108;2024-02-14T03:59:54;126.87;;;50.37;;
5465;SDS011;2755;50.728;7.108;2024-02-14T04:02:21;127.83;;;52.40;;
5465;SDS011;2755;50.728;7.108;2024-02-14T04:04:48;127.37;;;52.13;;
5465;SDS011;2755;50.728;7.108;2024-02-14T04:07:14;128.97;;;55.30;;
5465;SDS011;2755;50.728;7.108;2024-02-14T04:09:40;130.20;;;56.47;;
5465;SDS011;2755;50.728;7.108;2024-02-14T04:12:06;129.07;;;55.93;;
5465;SDS011;2755;50.728;7.108;2024-02-14T04:14:32;128.27;;;52.90;;
5465;SDS011;2755;50.728;7.108;2024-02-14T04:16:58;129.03;;;54.83;;
5465;SDS011;2755;50.728;7.108;2024-02-14T04:19:24;129.37;;;55.40;;
5465;SDS011;2755;50.728;7.108;2024-02-14T04:21:50;128.73;;;53.17;;
5465;SDS011;2755;50.728;7.108;2024-02-14T04:24:16;127.27;;;51.67;;
5465;SDS011;2755;50.728;7.108;2024-02-14T04:26:42;130.20;;;55.73;;
5465;SDS011;2755;50.728;7.108;2024-02-14T04:29:08;129.57;;;53.87;;
5465;SDS011;2755;50.728;7.108;2024-02-14T04:31:34;129.27;;;55.20;;
5465;SDS011;2755;50.728;7.108;2024-02-14T04:34:00;129.47;;;54.83;;
5465;SDS011;2755;50.728;7.108;2024-02-14T04:36:25;129.17;;;53.87;;
5465;SDS011;2755;50.728;7.108;2024-02-14T04:38:51;126.97;;;51.67;;
5465;SDS011;2755;50.728;7.108;2024-02-14T04:41:18;129.10;;;55.10;;
5465;SDS011;2755;50.728;7.108;2024-02-14T04:43:44;128.93;;;54.57;;
5465;SDS011;2755;50.728;7.108;2024-02-14T04:46:10;130.70;;;56.20;;
5465;SDS011;2755;50.728;7.108;2024-02-14T04:48:36;129.80;;;55.57;;
5465;SDS011;2755;50.728;7.108;2024-02-14T04:51:03;126.47;;;49.87;;
5465;SDS011;2755;50.728;7.108;2024-02-14T04:53:29;129.80;;;54.60;;
5465;SDS011;2755;50.728;7.108;2024-02-14T04:55:55;130.10;;;54.40;;
5465;SDS011;2755;50.728;7.108;2024-02-14T04:58:22;130.67;;;57.30;;
5465;SDS011;2755;50.728;7.108;2024-02-14T05:00:48;129.10;;;53.40;;
5465;SDS011;2755;50.728;7.108;2024-02-14T05:03:13;130.33;;;55.27;;
5465;SDS011;2755;50.728;7.108;2024-02-14T05:05:40;127.90;;;54.00;;
5465;SDS011;2755;50.728;7.108;2024-02-14T05:08:06;130.00;;;54.53;;
5465;SDS011;2755;50.728;7.108;2024-02-14T05:10:32;127.67;;;52.90;;
5465;SDS011;2755;50.728;7.108;2024-02-14T05:12:58;130.10;;;53.40;;
5465;SDS011;2755;50.728;7.108;2024-02-14T05:15:24;128.97;;;54.93;;
5465;SDS011;2755;50.728;7.108;2024-02-14T05:17:50;128.20;;;51.17;;
5465;SDS011;2755;50.728;7.108;2024-02-14T05:20:16;129.57;;;54.17;;
5465;SDS011;2755;50.728;7.108;2024-02-14T05:22:42;128.97;;;54.10;;
5465;SDS011;2755;50.728;7.108;2024-02-14T05:25:08;127.43;;;51.33;;
5465;SDS011;2755;50.728;7.108;2024-02-14T05:27:37;130.57;;;55.20;;
5465;SDS011;2755;50.728;7.108;2024-02-14T05:30:03;130.00;;;53.47;;
5465;SDS011;2755;50.728;7.108;2024-02-14T05:32:34;129.87;;;56.13;;
5465;SDS011;2755;50.728;7.108;2024-02-14T05:35:00;128.17;;;54.17;;
5465;SDS011;2755;50.728;7.108;2024-02-14T05:37:26;130.20;;;55.37;;
5465;SDS011;2755;50.728;7.108;2024-02-14T05:39:56;128.67;;;53.57;;
5465;SDS011;2755;50.728;7.108;2024-02-14T05:42:21;131.37;;;57.10;;
5465;SDS011;2755;50.728;7.108;2024-02-14T05:44:47;131.17;;;56.63;;
5465;SDS011;2755;50.728;7.108;2024-02-14T05:47:13;128.43;;;54.57;;
5465;SDS011;2755;50.728;7.108;2024-02-14T05:49:40;129.23;;;54.33;;
5465;SDS011;2755;50.728;7.108;2024-02-14T05:52:06;130.37;;;53.83;;
5465;SDS011;2755;50.728;7.108;2024-02-14T05:54:32;128.23;;;52.10;;
5465;SDS011;2755;50.728;7.108;2024-02-14T05:56:58;127.90;;;51.17;;
5465;SDS011;2755;50.728;7.108;2024-02-14T05:59:24;125.90;;;50.30;;
5465;SDS011;2755;50.728;7.108;2024-02-14T06:01:50;128.70;;;53.47;;
5465;SDS011;2755;50.728;7.108;2024-02-14T06:04:16;129.00;;;53.00;;
5465;SDS011;2755;50.728;7.108;2024-02-14T06:06:42;127.00;;;49.70;;
5465;SDS011;2755;50.728;7.108;2024-02-14T06:09:08;129.27;;;53.93;;
5465;SDS011;2755;50.728;7.108;2024-02-14T06:11:35;129.80;;;53.83;;
5465;SDS011;2755;50.728;7.108;2024-02-14T06:14:03;126.83;;;51.53;;
5465;SDS011;2755;50.728;7.108;2024-02-14T06:16:29;129.07;;;52.77;;
5465;SDS011;2755;50.728;7.108;2024-02-14T06:18:55;130.67;;;55.47;;
5465;SDS011;2755;50.728;7.108;2024-02-14T06:21:21;129.23;;;53.43;;
5465;SDS011;2755;50.728;7.108;2024-02-14T06:23:47;129.07;;;52.23;;
5465;SDS011;2755;50.728;7.108;2024-02-14T06:26:13;129.57;;;53.37;;
5465;SDS011;2755;50.728;7.108;2024-02-14T06:28:39;127.50;;;52.77;;
5465;SDS011;2755;50.728;7.108;2024-02-14T06:31:05;129.57;;;53.50;;
5465;SDS011;2755;50.728;7.108;2024-02-14T06:33:30;130.43;;;55.97;;
5465;SDS011;2755;50.728;7.108;2024-02-14T06:35:56;130.40;;;56.80;;
5465;SDS011;2755;50.728;7.108;2024-02-14T06:38:22;129.40;;;53.47;;
5465;SDS011;2755;50.728;7.108;2024-02-14T06:40:47;130.57;;;55.67;;
5465;SDS011;2755;50.728;7.108;2024-02-14T06:43:14;128.60;;;54.90;;
5465;SDS011;2755;50.728;7.108;2024-02-14T06:45:40;128.83;;;53.70;;
5465;SDS011;2755;50.728;7.108;2024-02-14T06:48:07;129.50;;;56.57;;
5465;SDS011;2755;50.728;7.108;2024-02-14T06:50:33;130.50;;;54.83;;
5465;SDS011;2755;50.728;7.108;2024-02-14T06:52:59;129.23;;;54.27;;
5465;SDS011;2755;50.728;7.108;2024-02-14T06:55:28;129.47;;;54.63;;
5465;SDS011;2755;50.728;7.108;2024-02-14T06:57:57;131.00;;;56.63;;
5465;SDS011;2755;50.728;7.108;2024-02-14T07:00:24;130.20;;;55.50;;
5465;SDS011;2755;50.728;7.108;2024-02-14T07:02:50;130.73;;;56.60;;
5465;SDS011;2755;50.728;7.108;2024-02-14T07:05:16;131.67;;;58.00;;
5465;SDS011;2755;50.728;7.108;2024-02-14T07:07:43;129.10;;;53.27;;
5465;SDS011;2755;50.728;7.108;2024-02-14T07:10:09;130.70;;;56.70;;
5465;SDS011;2755;50.728;7.108;2024-02-14T07:12:35;130.30;;;55.47;;
5465;SDS011;2755;50.728;7.108;2024-02-14T07:15:01;128.67;;;54.07;;
5465;SDS011;2755;50.728;7.108;2024-02-14T07:17:29;130.07;;;55.87;;
5465;SDS011;2755;50.728;7.108;2024-02-14T07:19:55;129.27;;;52.30;;
5465;SDS011;2755;50.728;7.108;2024-02-14T07:22:21;129.90;;;54.47;;
5465;SDS011;2755;50.728;7.108;2024-02-14T07:24:47;128.40;;;51.90;;
5465;SDS011;2755;50.728;7.108;2024-02-14T07:27:14;128.77;;;54.10;;
5465;SDS011;2755;50.728;7.108;2024-02-14T07:29:40;131.27;;;56.03;;
5465;SDS011;2755;50.728;7.108;2024-02-14T07:32:06;126.43;;;49.20;;
5465;SDS011;2755;50.728;7.108;2024-02-14T07:34:32;129.87;;;53.37;;
5465;SDS011;2755;50.728;7.108;2024-02-14T07:36:58;128.77;;;52.10;;
5465;SDS011;2755;50.728;7.108;2024-02-14T07:39:24;127.17;;;49.47;;
5465;SDS011;2755;50.728;7.108;2024-02-14T07:41:50;124.90;;;46.60;;
5465;SDS011;2755;50.728;7.108;2024-02-14T07:44:16;125.60;;;47.10;;
5465;SDS011;2755;50.728;7.108;2024-02-14T07:46:42;128.17;;;51.70;;
5465;SDS011;2755;50.728;7.108;2024-02-14T07:49:08;125.13;;;47.10;;
5465;SDS011;2755;50.728;7.108;2024-02-14T07:51:35;128.10;;;52.17;;
5465;SDS011;2755;50.728;7.108;2024-02-14T07:54:04;127.80;;;51.57;;
5465;SDS011;2755;50.728;7.108;2024-02-14T07:56:30;128.10;;;50.83;;
5465;SDS011;2755;50.728;7.108;2024-02-14T07:58:56;124.90;;;48.93;;
5465;SDS011;2755;50.728;7.108;2024-02-14T08:01:22;127.47;;;51.07;;
5465;SDS011;2755;50.728;7.108;2024-02-14T08:03:48;125.17;;;46.73;;
5465;SDS011;2755;50.728;7.108;2024-02-14T08:06:14;126.27;;;48.50;;
5465;SDS011;2755;50.728;7.108;2024-02-14T08:08:40;125.80;;;47.07;;
5465;SDS011;2755;50.728;7.108;2024-02-14T08:11:06;123.40;;;43.60;;
5465;SDS011;2755;50.728;7.108;2024-02-14T08:13:32;128.97;;;50.87;;
5465;SDS011;2755;50.728;7.108;2024-02-14T08:15:57;126.67;;;48.33;;
5465;SDS011;2755;50.728;7.108;2024-02-14T08:18:23;126.00;;;47.20;;
5465;SDS011;2755;50.728;7.108;2024-02-14T08:20:49;128.10;;;50.33;;
5465;SDS011;2755;50.728;7.108;2024-02-14T08:23:15;125.37;;;46.27;;
5465;SDS011;2755;50.728;7.108;2024-02-14T08:25:42;124.77;;;46.97;;
5465;SDS011;2755;50.728;7.108;2024-02-14T08:28:07;124.97;;;46.30;;
5465;SDS011;2755;50.728;7.108;2024-02-14T08:30:34;126.47;;;47.10;;
5465;SDS011;2755;50.728;7.108;2024-02-14T08:32:59;124.80;;;46.70;;
5465;SDS011;2755;50.728;7.108;2024-02-14T08:35:25;126.30;;;48.30;;
5465;SDS011;2755;50.728;7.108;2024-02-14T08:37:51;126.03;;;49.07;;
5465;SDS011;2755;50.728;7.108;2024-02-14T08:40:17;127.87;;;50.97;;
5465;SDS011;2755;50.728;7.108;2024-02-14T08:42:43;126.37;;;48.37;;
5465;SDS011;2755;50.728;7.108;2024-02-14T08:45:09;126.50;;;47.60;;
5465;SDS011;2755;50.728;7.108;2024-02-14T08:47:35;127.37;;;50.97;;
5465;SDS011;2755;50.728;7.108;2024-02-14T08:50:01;126.17;;;49.03;;
5465;SDS011;2755;50.728;7.108;2024-02-14T08:52:30;129.17;;;53.07;;
5465;SDS011;2755;50.728;7.108;2024-02-14T08:54:55;127.97;;;50.77;;
5465;SDS011;2755;50.728;7.108;2024-02-14T08:57:21;128.47;;;51.40;;
5465;SDS011;2755;50.728;7.108;2024-02-14T08:59:48;127.87;;;51.47;;
5465;SDS011;2755;50.728;7.108;2024-02-14T09:02:15;128.60;;;52.67;;
5465;SDS011;2755;50.728;7.108;2024-02-14T09:04:41;128.23;;;51.50;;
5465;SDS011;2755;50.728;7.108;2024-02-14T09:07:07;126.17;;;47.10;;
5465;SDS011;2755;50.728;7.108;2024-02-14T09:09:33;128.00;;;51.30;;
5465;SDS011;2755;50.728;7.108;2024-02-14T09:11:59;127.47;;;50.13;;
5465;SDS011;2755;50.728;7.108;2024-02-14T09:14:29;127.40;;;49.97;;
5465;SDS011;2755;50.728;7.108;2024-02-14T09:16:55;126.53;;;49.67;;
5465;SDS011;2755;50.728;7.108;2024-02-14T09:19:22;127.67;;;49.47;;
5465;SDS011;2755;50.728;7.108;2024-02-14T09:21:48;127.67;;;50.80;;
5465;SDS011;2755;50.728;7.108;2024-02-14T09:24:14;128.27;;;50.97;;
5465;SDS011;2755;50.728;7.108;2024-02-14T09:26:40;128.47;;;50.93;;
5465;SDS011;2755;50.728;7.108;2024-02-14T09:29:08;129.60;;;53.30;;
5465;SDS011;2755;50.728;7.108;2024-02-14T09:31:35;130.27;;;53.67;;
5465;SDS011;2755;50.728;7.108;2024-02-14T09:34:02;131.30;;;55.93;;
5465;SDS011;2755;50.728;7.108;2024-02-14T09:36:27;135.37;;;61.60;;
5465;SDS011;2755;50.728;7.108;2024-02-14T09:38:54;136.77;;;63.87;;
5465;SDS011;2755;50.728;7.108;2024-02-14T09:41:36;134.53;;;60.40;;
5465;SDS011;2755;50.728;7.108;2024-02-14T09:44:05;138.40;;;66.93;;
5465;SDS011;2755;50.728;7.108;2024-02-14T09:46:32;137.83;;;66.50;;
5465;SDS011;2755;50.728;7.108;2024-02-14T09:49:01;143.10;;;74.30;;
5465;SDS011;2755;50.728;7.108;2024-02-14T09:51:30;142.97;;;74.77;;
5465;SDS011;2755;50.728;7.108;2024-02-14T09:53:56;145.50;;;78.70;;
5465;SDS011;2755;50.728;7.108;2024-02-14T09:56:25;147.13;;;81.60;;
5465;SDS011;2755;50.728;7.108;2024-02-14T09:58:52;146.83;;;82.17;;
5465;SDS011;2755;50.728;7.108;2024-02-14T10:01:22;152.27;;;90.57;;
5465;SDS011;2755;50.728;7.108;2024-02-14T10:03:50;159.97;;;103.60;;
5465;SDS011;2755;50.728;7.108;2024-02-14T10:06:17;159.20;;;104.53;;
5465;SDS011;2755;50.728;7.108;2024-02-14T10:08:45;158.40;;;101.23;;
5465;SDS011;2755;50.728;7.108;2024-02-14T10:11:14;157.50;;;100.13;;
5465;SDS011;2755;50.728;7.108;2024-02-14T10:13:40;156.87;;;99.67;;
5465;SDS011;2755;50.728;7.108;2024-02-14T10:16:06;157.80;;;101.33;;
5465;SDS011;2755;50.728;7.108;2024-02-14T10:18:33;154.07;;;96.67;;
5465;SDS011;2755;50.728;7.108;2024-02-14T10:20:59;150.17;;;88.87;;
5465;SDS011;2755;50.728;7.108;2024-02-14T10:23:26;148.47;;;86.27;;
5465;SDS011;2755;50.728;7.108;2024-02-14T10:25:53;152.10;;;88.10;;
5465;SDS011;2755;50.728;7.108;2024-02-14T10:28:21;148.03;;;84.80;;
5465;SDS011;2755;50.728;7.108;2024-02-14T10:30:46;148.23;;;83.90;;
5465;SDS011;2755;50.728;7.108;2024-02-14T10:33:14;151.47;;;88.67;;
5465;SDS011;2755;50.728;7.108;2024-02-14T10:35:40;149.37;;;84.73;;
5465;SDS011;2755;50.728;7.108;2024-02-14T10:38:07;151.77;;;90.97;;
5465;SDS011;2755;50.728;7.108;2024-02-14T10:40:34;147.70;;;81.97;;
5465;SDS011;2755;50.728;7.108;2024-02-14T10:43:01;149.47;;;85.17;;
5465;SDS011;2755;50.728;7.108;2024-02-14T10:45:27;148.00;;;84.77;;
5465;SDS011;2755;50.728;7.108;2024-02-14T10:47:53;147.80;;;81.47;;
5465;SDS011;2755;50.728;7.108;2024-02-14T10:50:22;145.57;;;79.60;;
5465;SDS011;2755;50.728;7.108;2024-02-14T10:52:49;148.63;;;82.97;;
5465;SDS011;2755;50.728;7.108;2024-02-14T10:55:21;150.43;;;85.33;;
5465;SDS011;2755;50.728;7.108;2024-02-14T10:57:52;148.57;;;84.03;;
5465;SDS011;2755;50.728;7.108;2024-02-14T11:00:19;148.37;;;83.63;;
5465;SDS011;2755;50.728;7.108;2024-02-14T11:02:45;148.67;;;83.07;;
5465;SDS011;2755;50.728;7.108;2024-02-14T11:05:12;146.43;;;78.30;;
5465;SDS011;2755;50.728;7.108;2024-02-14T11:07:49;148.67;;;84.00;;
5465;SDS011;2755;50.728;7.108;2024-02-14T11:10:18;149.00;;;85.47;;
5465;SDS011;2755;50.728;7.108;2024-02-14T11:12:46;148.77;;;85.57;;
5465;SDS011;2755;50.728;7.108;2024-02-14T11:15:16;147.30;;;83.00;;
5465;SDS011;2755;50.728;7.108;2024-02-14T11:17:43;148.47;;;82.63;;
5465;SDS011;2755;50.728;7.108;2024-02-14T11:20:14;143.33;;;74.43;;
5465;SDS011;2755;50.728;7.108;2024-02-14T11:23:20;150.27;;;87.60;;
5465;SDS011;2755;50.728;7.108;2024-02-14T11:25:39;147.77;;;83.77;;
5465;SDS011;2755;50.728;7.108;2024-02-14T11:28:17;148.67;;;86.57;;
5465;SDS011;2755;50.728;7.108;2024-02-14T11:30:48;149.97;;;85.17;;
5465;SDS011;2755;50.728;7.108;2024-02-14T11:35:40;150.43;;;87.30;;
5465;SDS011;2755;50.728;7.108;2024-02-14T11:38:08;147.43;;;83.17;;
5465;SDS011;2755;50.728;7.108;2024-02-14T11:40:34;148.93;;;86.37;;
5465;SDS011;2755;50.728;7.108;2024-02-14T11:43:01;147.17;;;81.73;;
5465;SDS011;2755;50.728;7.108;2024-02-14T11:45:29;147.73;;;84.37;;
5465;SDS011;2755;50.728;7.108;2024-02-14T11:47:54;147.60;;;83.67;;
5465;SDS011;2755;50.728;7.108;2024-02-14T11:50:20;146.87;;;83.13;;
5465;SDS011;2755;50.728;7.108;2024-02-14T11:52:46;147.30;;;83.23;;
5465;SDS011;2755;50.728;7.108;2024-02-14T11:55:12;147.33;;;81.90;;
5465;SDS011;2755;50.728;7.108;2024-02-14T11:57:40;143.83;;;77.10;;
5465;SDS011;2755;50.728;7.108;2024-02-14T12:00:07;145.20;;;80.17;;
5465;SDS011;2755;50.728;7.108;2024-02-14T12:02:33;147.27;;;83.00;;
5465;SDS011;2755;50.728;7.108;2024-02-14T12:05:00;148.27;;;85.70;;
5465;SDS011;2755;50.728;7.108;2024-02-14T12:07:29;145.80;;;81.13;;
5465;SDS011;2755;50.728;7.108;2024-02-14T12:09:55;148.50;;;86.07;;
5465;SDS011;2755;50.728;7.108;2024-02-14T12:12:22;143.40;;;76.80;;
5465;SDS011;2755;50.728;7.108;2024-02-14T12:14:51;147.10;;;82.30;;
5465;SDS011;2755;50.728;7.108;2024-02-14T12:17:17;145.80;;;81.17;;
5465;SDS011;2755;50.728;7.108;2024-02-14T12:19:44;146.40;;;80.60;;
5465;SDS011;2755;50.728;7.108;2024-02-14T12:22:10;145.77;;;81.37;;
5465;SDS011;2755;50.728;7.108;2024-02-14T12:24:43;145.17;;;79.00;;
5465;SDS011;2755;50.728;7.108;2024-02-14T12:27:09;146.93;;;83.37;;
5465;SDS011;2755;50.728;7.108;2024-02-14T12:29:35;145.23;;;79.73;;
5465;SDS011;2755;50.728;7.108;2024-02-14T12:32:07;148.40;;;84.93;;
5465;SDS011;2755;50.728;7.108;2024-02-14T12:34:33;147.67;;;83.57;;
5465;SDS011;2755;50.728;7.108;2024-02-14T12:36:59;148.30;;;82.70;;
5465;SDS011;2755;50.728;7.108;2024-02-14T12:39:25;149.97;;;86.47;;
5465;SDS011;2755;50.728;7.108;2024-02-14T12:41:54;151.07;;;86.83;;
5465;SDS011;2755;50.728;7.108;2024-02-14T12:44:20;148.63;;;82.97;;
5465;SDS011;2755;50.728;7.108;2024-02-14T12:46:46;147.53;;;80.27;;
5465;SDS011;2755;50.728;7.108;2024-02-14T12:49:12;148.57;;;82.83;;
5465;SDS011;2755;50.728;7.108;2024-02-14T12:51:38;148.87;;;84.17;;
5465;SDS011;2755;50.728;7.108;2024-02-14T12:54:04;149.97;;;84.23;;
5465;SDS011;2755;50.728;7.108;2024-02-14T12:56:32;154.47;;;92.70;;
5465;SDS011;2755;50.728;7.108;2024-02-14T12:58:58;149.77;;;84.57;;
5465;SDS011;2755;50.728;7.108;2024-02-14T13:01:24;152.17;;;89.83;;
5465;SDS011;2755;50.728;7.108;2024-02-14T13:03:50;151.83;;;88.20;;
5465;SDS011;2755;50.728;7.108;2024-02-14T13:06:16;150.77;;;86.33;;
5465;SDS011;2755;50.728;7.108;2024-02-14T13:08:42;152.83;;;91.70;;
5465;SDS011;2755;50.728;7.108;2024-02-14T13:11:07;153.07;;;90.07;;
5465;SDS011;2755;50.728;7.108;2024-02-14T13:13:36;154.70;;;92.97;;
5465;SDS011;2755;50.728;7.108;2024-02-14T13:16:01;154.50;;;92.23;;
5465;SDS011;2755;50.728;7.108;2024-02-14T13:18:27;154.07;;;92.17;;
5465;SDS011;2755;50.728;7.108;2024-02-14T13:20:53;154.50;;;93.30;;
5465;SDS011;2755;50.728;7.108;2024-02-14T13:23:24;154.50;;;94.80;;
5465;SDS011;2755;50.728;7.108;2024-02-14T13:25:50;154.60;;;95.20;;
5465;SDS011;2755;50.728;7.108;2024-02-14T13:28:16;155.17;;;95.03;;
5465;SDS011;2755;50.728;7.108;2024-02-14T13:30:42;151.73;;;89.93;;
5465;SDS011;2755;50.728;7.108;2024-02-14T13:33:08;150.70;;;86.60;;
5465;SDS011;2755;50.728;7.108;2024-02-14T13:35:36;146.90;;;80.23;;
5465;SDS011;2755;50.728;7.108;2024-02-14T13:38:03;144.90;;;76.77;;
5465;SDS011;2755;50.728;7.108;2024-02-14T13:40:30;141.50;;;73.67;;
5465;SDS011;2755;50.728;7.108;2024-02-14T13:42:56;139.00;;;67.83;;
5465;SDS011;2755;50.728;7.108;2024-02-14T13:45:24;137.67;;;65.10;;
5465;SDS011;2755;50.728;7.108;2024-02-14T13:47:49;135.43;;;62.17;;
5465;SDS011;2755;50.728;7.108;2024-02-14T13:50:16;137.00;;;63.70;;
5465;SDS011;2755;50.728;7.108;2024-02-14T13:52:41;133.97;;;60.87;;
5465;SDS011;2755;50.728;7.108;2024-02-14T13:55:07;130.97;;;55.23;;
5465;SDS011;2755;50.728;7.108;2024-02-14T13:57:36;126.97;;;49.33;;
5465;SDS011;2755;50.728;7.108;2024-02-14T14:00:06;127.70;;;49.90;;
5465;SDS011;2755;50.728;7.108;2024-02-14T14:02:36;125.77;;;47.43;;
5465;SDS011;2755;50.728;7.108;2024-02-14T14:05:06;123.90;;;43.67;;
5465;SDS011;2755;50.728;7.108;2024-02-14T14:07:36;125.57;;;46.00;;
5465;SDS011;2755;50.728;7.108;2024-02-14T14:10:04;126.67;;;48.30;;
5465;SDS011;2755;50.728;7.108;2024-02-14T14:12:30;127.87;;;49.97;;
5465;SDS011;2755;50.728;7.108;2024-02-14T14:14:56;127.90;;;49.23;;
5465;SDS011;2755;50.728;7.108;2024-02-14T14:17:22;130.23;;;53.40;;
5465;SDS011;2755;50.728;7.108;2024-02-14T14:19:48;130.73;;;55.27;;
5465;SDS011;2755;50.728;7.108;2024-02-14T14:22:13;132.90;;;57.90;;
5465;SDS011;2755;50.728;7.108;2024-02-14T14:24:40;131.90;;;57.27;;
5465;SDS011;2755;50.728;7.108;2024-02-14T14:27:06;133.87;;;59.17;;
5465;SDS011;2755;50.728;7.108;2024-02-14T14:29:38;135.80;;;63.10;;
5465;SDS011;2755;50.728;7.108;2024-02-14T14:32:06;133.73;;;60.23;;